createdAt,value
2022-11-24T00:02:46.696Z,13.07
2022-11-24T00:07:50.222Z,14.63
2022-11-24T00:12:53.217Z,10.30
2022-11-24T00:17:56.427Z,12.77
2022-11-24T00:22:59.413Z,10.40
2022-11-24T00:28:02.307Z,15.87
2022-11-24T00:33:06.413Z,14.07
2022-11-24T00:38:09.249Z,15.87
2022-11-24T00:43:12.553Z,15.40
2022-11-24T00:48:15.570Z,22.33
2022-11-24T00:53:18.473Z,22.83
2022-11-24T00:58:23.233Z,21.80
2022-11-24T01:03:26.126Z,22.40
2022-11-24T01:08:28.943Z,14.70
2022-11-24T01:13:31.787Z,24.20
2022-11-24T01:18:34.665Z,21.37
2022-11-24T01:23:38.056Z,16.77
2022-11-24T01:28:46.637Z,25.20
2022-11-24T01:33:50.547Z,25.33
2022-11-24T01:38:53.432Z,23.40
2022-11-24T01:43:57.422Z,23.67
2022-11-24T01:49:09.211Z,27.17
2022-11-24T01:54:35.443Z,27.37
2022-11-24T01:59:38.743Z,35.07
2022-11-24T02:04:42.752Z,31.50
2022-11-24T02:09:52.913Z,29.70
2022-11-24T02:14:56.888Z,39.20
2022-11-24T02:20:04.433Z,33.50
2022-11-24T02:25:58.580Z,42.07
2022-11-24T02:31:02.454Z,32.63
2022-11-24T02:36:05.710Z,37.97
2022-11-24T02:41:15.130Z,47.47
2022-11-24T02:46:18.038Z,37.10
2022-11-24T02:51:21.123Z,41.30
2022-11-24T02:56:25.607Z,38.40
2022-11-24T03:01:28.521Z,37.43
2022-11-24T03:06:31.500Z,43.23
2022-11-24T03:11:34.345Z,38.20
2022-11-24T03:16:37.294Z,47.03
2022-11-24T03:21:40.243Z,44.23
2022-11-24T03:26:43.187Z,47.60
2022-11-24T03:31:46.245Z,46.43
2022-11-24T03:36:49.067Z,40.23
2022-11-24T03:41:51.932Z,41.00
2022-11-24T03:46:54.952Z,41.73
2022-11-24T03:51:57.870Z,40.80
2022-11-24T03:57:00.872Z,42.30
2022-11-24T04:02:03.797Z,39.70
2022-11-24T04:07:06.732Z,43.87
2022-11-24T04:12:29.162Z,44.70
2022-11-24T04:17:32.097Z,53.50
2022-11-24T04:22:35.869Z,42.47
2022-11-24T04:27:39.359Z,52.97
2022-11-24T04:32:42.383Z,60.20
2022-11-24T04:37:45.180Z,59.87
2022-11-24T04:42:55.666Z,58.93
2022-11-24T04:47:58.604Z,64.47
2022-11-24T04:53:01.528Z,65.47
2022-11-24T04:58:04.477Z,73.20
2022-11-24T05:03:07.367Z,63.37
2022-11-24T05:08:10.234Z,70.10
2022-11-24T05:13:13.965Z,63.00
2022-11-24T05:18:16.874Z,65.30
2022-11-24T05:23:19.822Z,68.23
2022-11-24T05:28:22.727Z,70.40
2022-11-24T05:33:28.630Z,71.93
2022-11-24T05:38:33.092Z,66.87
2022-11-24T05:43:35.989Z,59.43
2022-11-24T05:48:39.152Z,55.07
2022-11-24T05:53:42.046Z,52.90
2022-11-24T05:58:45.087Z,48.07
2022-11-24T06:03:48.267Z,57.70
2022-11-24T06:08:51.165Z,56.43
2022-11-24T06:13:54.616Z,62.20
2022-11-24T06:18:57.991Z,50.80
2022-11-24T06:24:00.753Z,49.17
2022-11-24T06:29:03.978Z,46.43
2022-11-24T06:34:11.060Z,44.53
2022-11-24T06:39:13.987Z,44.97
2022-11-24T06:44:17.011Z,42.80
2022-11-24T06:49:20.150Z,41.47
2022-11-24T06:54:23.352Z,44.00
2022-11-24T06:59:27.745Z,35.80
2022-11-24T07:04:30.820Z,36.67
2022-11-24T07:09:33.698Z,33.63
2022-11-24T07:14:36.797Z,51.43
2022-11-24T07:19:40.055Z,45.43
2022-11-24T07:24:42.868Z,40.07
2022-11-24T07:29:45.775Z,41.50
2022-11-24T07:34:48.678Z,30.83
2022-11-24T07:39:51.544Z,28.80
2022-11-24T07:44:54.368Z,30.77
2022-11-24T07:49:57.499Z,26.40
2022-11-24T07:55:00.439Z,35.73
2022-11-24T08:00:05.927Z,42.07
2022-11-24T08:05:09.314Z,35.17
2022-11-24T08:10:12.309Z,44.73
2022-11-24T08:15:15.866Z,48.80
2022-11-24T08:20:19.007Z,48.17
2022-11-24T08:25:24.456Z,36.87
2022-11-24T08:30:27.911Z,40.47
2022-11-24T08:35:30.795Z,31.60
2022-11-24T08:40:33.930Z,32.87
2022-11-24T08:45:41.359Z,30.60
2022-11-24T08:50:44.881Z,25.20
2022-11-24T08:55:47.821Z,36.20
2022-11-24T09:00:50.638Z,35.13
2022-11-24T09:05:53.581Z,32.77
2022-11-24T09:11:05.761Z,34.63
2022-11-24T09:16:17.937Z,34.20
2022-11-24T09:21:21.905Z,43.73
2022-11-24T09:26:31.113Z,40.70
2022-11-24T09:31:37.193Z,34.40
2022-11-24T09:36:40.045Z,36.13
2022-11-24T09:42:06.034Z,31.53
2022-11-24T09:47:30.622Z,29.40
2022-11-24T09:52:43.245Z,29.37
2022-11-24T09:57:56.077Z,34.10
2022-11-24T10:02:59.003Z,27.37
2022-11-24T10:08:36.105Z,29.57
2022-11-24T10:14:03.068Z,29.57
2022-11-24T10:19:36.315Z,28.67
2022-11-24T10:25:07.692Z,29.50
2022-11-24T10:30:23.914Z,28.00
2022-11-24T10:35:37.649Z,33.97
2022-11-24T10:40:56.859Z,25.47
2022-11-24T10:46:09.120Z,27.37
2022-11-24T10:56:44.911Z,30.63
2022-11-24T11:01:47.996Z,26.43
2022-11-24T11:06:51.428Z,31.13
2022-11-24T11:11:54.394Z,26.97
2022-11-24T11:16:58.136Z,26.13
2022-11-24T11:22:48.324Z,24.77
2022-11-24T11:27:51.592Z,22.23
2022-11-24T11:38:21.385Z,22.67
2022-11-24T11:43:34.467Z,20.53
2022-11-24T11:48:43.581Z,18.97
2022-11-24T11:54:16.477Z,19.43
2022-11-24T11:59:50.104Z,21.23
2022-11-24T12:05:34.182Z,21.57
2022-11-24T12:10:56.191Z,21.97
2022-11-24T12:16:14.677Z,21.23
2022-11-24T12:21:26.637Z,21.93
2022-11-24T12:26:49.331Z,19.53
2022-11-24T12:32:21.231Z,43.77
2022-11-24T12:37:47.326Z,22.08
2022-11-24T12:43:13.563Z,19.37
2022-11-24T12:48:43.071Z,18.93
2022-11-24T12:53:52.951Z,20.63
2022-11-24T12:59:13.480Z,22.93
2022-11-24T13:04:38.138Z,16.97
2022-11-24T13:10:53.524Z,17.93
2022-11-24T13:16:34.434Z,18.67
2022-11-24T13:21:32.837Z,16.90
2022-11-24T13:26:41.557Z,18.17
2022-11-24T13:31:44.769Z,18.87
2022-11-24T13:36:54.127Z,19.03
2022-11-24T13:41:57.239Z,18.47
2022-11-24T13:47:25.056Z,27.87
2022-11-24T13:52:39.847Z,18.87
2022-11-24T13:57:58.427Z,18.33
2022-11-24T14:03:22.037Z,17.47
2022-11-24T14:08:30.460Z,16.93
2022-11-24T14:13:33.626Z,16.63
2022-11-24T14:18:40.059Z,18.57
2022-11-24T14:24:33.472Z,18.10
2022-11-24T14:30:03.351Z,15.47
2022-11-24T14:35:29.210Z,18.30
2022-11-24T14:40:55.570Z,20.63
2022-11-24T14:46:09.380Z,19.07
2022-11-24T14:51:32.306Z,19.37
2022-11-24T14:56:38.198Z,18.83
2022-11-24T15:01:41.083Z,21.57
2022-11-24T15:07:26.403Z,20.33
2022-11-24T15:12:41.005Z,18.17
2022-11-24T15:17:59.276Z,20.47
2022-11-24T15:23:23.993Z,23.07
2022-11-24T15:28:27.427Z,21.07
2022-11-24T15:33:30.960Z,20.60
2022-11-24T15:38:33.972Z,24.67
2022-11-24T15:43:41.136Z,21.50
2022-11-24T15:48:43.984Z,73.13
2022-11-24T15:53:58.722Z,23.77
2022-11-24T15:59:04.711Z,21.47
2022-11-24T16:04:07.813Z,23.53
2022-11-24T16:09:16.281Z,21.20
2022-11-24T16:14:19.356Z,19.80
2022-11-24T16:19:22.391Z,17.90
2022-11-24T16:24:25.912Z,22.63
2022-11-24T16:29:28.770Z,23.13
2022-11-24T16:34:31.733Z,21.40
2022-11-24T16:39:37.282Z,29.17
2022-11-24T16:44:40.352Z,23.20
2022-11-24T16:49:43.420Z,24.50
2022-11-24T16:54:47.732Z,20.50
2022-11-24T16:59:50.632Z,26.27
2022-11-24T17:04:53.571Z,24.70
2022-11-24T17:09:56.806Z,25.33
2022-11-24T17:15:30.452Z,30.90
2022-11-24T17:20:22.816Z,22.57
2022-11-24T17:25:25.754Z,22.10
2022-11-24T17:30:28.600Z,30.40
2022-11-24T17:35:34.370Z,21.13
2022-11-24T17:40:37.205Z,22.23
2022-11-24T17:45:40.161Z,26.17
2022-11-24T17:50:43.460Z,21.77
2022-11-24T17:55:48.208Z,24.33
2022-11-24T18:00:52.171Z,22.13
2022-11-24T18:05:55.972Z,29.70
2022-11-24T18:11:27.332Z,31.73
2022-11-24T18:16:35.011Z,27.40
2022-11-24T18:21:44.809Z,30.83
2022-11-24T18:26:48.222Z,26.80
2022-11-24T18:31:51.203Z,25.73
2022-11-24T18:36:54.316Z,25.93
2022-11-24T18:41:56.961Z,23.90
2022-11-24T18:46:59.811Z,25.07
2022-11-24T18:52:02.696Z,23.33
2022-11-24T18:57:05.808Z,18.27
2022-11-24T19:02:10.860Z,25.67
2022-11-24T19:07:17.072Z,24.47
2022-11-24T19:12:20.023Z,27.17
2022-11-24T19:17:22.974Z,23.73
2022-11-24T19:22:25.811Z,21.83
2022-11-24T19:27:29.738Z,29.23
2022-11-24T19:32:32.773Z,21.33
2022-11-24T19:37:35.640Z,25.70
2022-11-24T19:42:38.598Z,26.47
2022-11-24T19:47:41.828Z,24.87
2022-11-24T19:52:44.767Z,25.23
2022-11-24T19:57:47.703Z,21.37
2022-11-24T20:02:51.113Z,22.93
2022-11-24T20:07:54.800Z,27.87
2022-11-24T20:12:57.768Z,24.10
2022-11-24T20:18:00.655Z,20.67
2022-11-24T20:23:03.832Z,26.03
2022-11-24T20:28:07.148Z,23.00
2022-11-24T20:33:10.084Z,23.57
2022-11-24T20:38:12.974Z,19.47
2022-11-24T20:43:15.945Z,28.03
2022-11-24T20:48:18.825Z,25.17
2022-11-24T20:53:21.743Z,23.87
2022-11-24T20:58:24.672Z,23.47
2022-11-24T21:03:27.587Z,20.60
2022-11-24T21:08:36.038Z,29.40
2022-11-24T21:13:43.750Z,24.50
2022-11-24T21:18:52.413Z,27.17
2022-11-24T21:23:55.256Z,26.73
2022-11-24T21:28:58.362Z,26.00
2022-11-24T21:34:01.022Z,29.20
2022-11-24T21:39:04.529Z,29.70
2022-11-24T21:44:07.761Z,24.17
2022-11-24T21:49:10.746Z,26.13
2022-11-24T21:54:13.663Z,22.53
2022-11-24T21:59:16.473Z,22.47
2022-11-24T22:04:19.372Z,23.73
2022-11-24T22:09:22.254Z,23.17
2022-11-24T22:14:25.163Z,23.63
2022-11-24T22:19:27.964Z,24.07
2022-11-24T22:24:30.819Z,21.77
2022-11-24T22:29:34.238Z,24.80
2022-11-24T22:34:37.280Z,23.23
2022-11-24T22:39:40.355Z,24.53
2022-11-24T22:44:43.259Z,27.10
2022-11-24T22:49:46.080Z,24.17
2022-11-24T22:54:49.015Z,28.73
2022-11-24T22:59:51.809Z,24.83
2022-11-24T23:04:54.798Z,23.80
2022-11-24T23:09:57.462Z,23.43
2022-11-24T23:15:00.229Z,24.93
2022-11-24T23:20:03.329Z,23.90
2022-11-24T23:25:06.763Z,29.40
2022-11-24T23:30:09.818Z,31.57
2022-11-24T23:35:14.158Z,28.90
2022-11-24T23:40:17.375Z,35.83
2022-11-24T23:45:20.246Z,25.53
2022-11-24T23:50:23.090Z,28.63
2022-11-24T23:55:26.001Z,32.30
